createdAt,value
2024-03-26T00:04:17.854Z,99099.23
2024-03-26T00:09:20.863Z,99104.29
2024-03-26T00:14:23.661Z,99106.74
2024-03-26T00:19:26.458Z,99107.80
2024-03-26T00:24:29.573Z,99113.14
2024-03-26T00:29:32.574Z,99119.02
2024-03-26T00:34:35.785Z,99118.86
2024-03-26T00:39:38.792Z,99121.09
2024-03-26T00:44:41.624Z,99124.70
2024-03-26T00:49:44.500Z,99127.29
2024-03-26T00:54:47.816Z,99126.06
2024-03-26T00:59:50.823Z,99129.49
2024-03-26T01:04:54.029Z,99133.61
2024-03-26T01:09:56.934Z,99138.60
2024-03-26T01:14:59.844Z,99144.11
2024-03-26T01:20:02.742Z,99139.10
2024-03-26T01:25:08.550Z,99147.50
2024-03-26T01:30:11.942Z,99153.67
2024-03-26T01:35:15.164Z,99155.18
2024-03-26T01:40:18.263Z,99156.86
2024-03-26T01:45:21.159Z,99160.82
2024-03-26T01:50:24.183Z,99161.04
2024-03-26T01:55:27.686Z,99166.42
2024-03-26T02:00:31.768Z,99172.30
2024-03-26T02:05:34.622Z,99173.89
2024-03-26T02:10:37.523Z,99176.52
2024-03-26T02:15:41.255Z,99171.54
2024-03-26T02:20:45.724Z,99168.61
2024-03-26T02:25:49.417Z,99169.66
2024-03-26T02:30:52.331Z,99172.23
2024-03-26T02:35:55.226Z,99180.33
2024-03-26T02:40:58.123Z,99184.98
2024-03-26T02:46:00.926Z,99183.45
2024-03-26T02:51:04.246Z,99187.59
2024-03-26T02:56:07.253Z,99192.74
2024-03-26T03:01:12.000Z,99193.61
2024-03-26T03:06:14.892Z,99199.81
2024-03-26T03:11:17.702Z,99203.10
2024-03-26T03:16:20.603Z,99208.95
2024-03-26T03:21:23.506Z,99206.70
2024-03-26T03:26:26.410Z,99215.16
2024-03-26T03:31:30.955Z,99214.29
2024-03-26T03:36:33.961Z,99222.39
2024-03-26T03:41:36.763Z,99224.81
2024-03-26T03:46:39.661Z,99231.36
2024-03-26T03:51:42.568Z,99229.46
2024-03-26T03:56:45.490Z,99236.70
2024-03-26T04:01:49.043Z,99239.45
2024-03-26T04:06:51.899Z,99245.84
2024-03-26T04:11:55.442Z,99246.52
2024-03-26T04:17:01.013Z,99243.59
2024-03-26T04:22:03.987Z,99246.70
2024-03-26T04:27:06.908Z,99250.14
2024-03-26T04:32:09.895Z,99250.66
2024-03-26T04:37:12.906Z,99249.46
2024-03-26T04:42:15.714Z,99254.63
2024-03-26T04:47:18.931Z,99260.14
2024-03-26T04:52:21.928Z,99264.46
2024-03-26T04:57:24.833Z,99264.29
2024-03-26T05:02:27.840Z,99264.27
2024-03-26T05:07:30.747Z,99264.45
2024-03-26T05:12:33.644Z,99270.46
2024-03-26T05:17:36.551Z,99275.98
2024-03-26T05:22:39.663Z,99277.04
2024-03-26T05:27:42.665Z,99281.86
2024-03-26T05:32:45.564Z,99279.96
2024-03-26T05:37:50.120Z,99288.20
2024-03-26T05:42:53.015Z,99278.20
2024-03-26T05:47:55.957Z,99282.57
2024-03-26T05:53:00.352Z,99279.15
2024-03-26T05:58:03.674Z,99279.45
2024-03-26T06:03:06.998Z,99273.91
2024-03-26T06:08:09.997Z,99276.61
2024-03-26T06:13:13.036Z,99283.70
2024-03-26T06:18:16.540Z,99296.85
2024-03-26T06:23:19.531Z,99301.61
2024-03-26T06:28:23.045Z,99303.67
2024-03-26T06:33:26.719Z,99302.28
2024-03-26T06:38:30.701Z,99304.42
2024-03-26T06:43:33.702Z,99309.74
2024-03-26T06:48:36.611Z,99308.86
2024-03-26T06:53:39.518Z,99315.76
2024-03-26T06:58:46.418Z,99318.95
2024-03-26T07:03:49.320Z,99314.92
2024-03-26T07:08:52.544Z,99313.52
2024-03-26T07:13:55.433Z,99306.41
2024-03-26T07:18:58.336Z,99308.52
2024-03-26T07:24:01.253Z,99308.71
2024-03-26T07:29:04.155Z,99306.45
2024-03-26T07:34:07.063Z,99307.84
2024-03-26T07:39:16.722Z,99309.95
2024-03-26T07:44:19.772Z,99304.51
2024-03-26T07:49:22.725Z,99303.32
2024-03-26T07:54:25.631Z,99298.39
2024-03-26T07:59:28.746Z,99297.02
2024-03-26T08:04:31.651Z,99292.64
2024-03-26T08:09:34.764Z,99293.61
2024-03-26T08:14:40.709Z,99291.33
2024-03-26T08:19:43.736Z,99285.45
2024-03-26T08:24:46.514Z,99288.56
2024-03-26T08:29:49.544Z,99291.04
2024-03-26T08:34:52.446Z,99291.33
2024-03-26T08:39:57.090Z,99292.81
2024-03-26T08:45:00.288Z,99291.27
2024-03-26T08:50:03.925Z,99286.00
2024-03-26T08:55:07.403Z,99289.73
2024-03-26T09:00:12.046Z,99290.06
2024-03-26T09:05:14.997Z,99296.34
2024-03-26T09:10:17.910Z,99296.02
2024-03-26T09:15:20.821Z,99298.65
2024-03-26T09:20:23.705Z,99301.13
2024-03-26T09:25:26.692Z,99297.77
2024-03-26T09:30:29.720Z,99297.39
2024-03-26T09:35:32.626Z,99298.23
2024-03-26T09:40:36.042Z,99301.89
2024-03-26T09:45:38.948Z,99303.42
2024-03-26T09:50:43.521Z,99297.65
2024-03-26T09:55:47.519Z,99290.13
2024-03-26T10:00:51.346Z,99285.15
2024-03-26T10:05:55.002Z,99279.42
2024-03-26T10:10:57.969Z,99275.90
2024-03-26T10:16:01.561Z,99276.84
2024-03-26T10:21:09.113Z,99271.36
2024-03-26T10:26:12.108Z,99270.29
2024-03-26T10:31:15.235Z,99267.34
2024-03-26T10:36:18.424Z,99264.58
2024-03-26T10:41:51.234Z,99265.20
2024-03-26T10:46:55.169Z,99256.81
2024-03-26T10:52:01.253Z,99261.90
2024-03-26T10:57:05.250Z,99254.98
2024-03-26T11:02:09.922Z,99251.30
2024-03-26T11:07:14.841Z,99252.90
2024-03-26T11:12:22.311Z,99249.31
2024-03-26T11:17:25.793Z,99249.16
2024-03-26T11:22:28.652Z,99242.46
2024-03-26T11:27:32.231Z,99240.16
2024-03-26T11:32:35.229Z,99233.27
2024-03-26T11:37:40.518Z,99236.30
2024-03-26T11:42:45.800Z,99230.22
2024-03-26T11:47:48.952Z,99225.77
2024-03-26T11:52:51.865Z,99227.34
2024-03-26T11:57:55.179Z,99219.80
2024-03-26T12:02:58.177Z,99211.20
2024-03-26T12:08:01.186Z,99201.98
2024-03-26T12:13:05.646Z,99201.25
2024-03-26T12:18:08.539Z,99195.34
2024-03-26T12:23:11.538Z,99197.50
2024-03-26T12:28:14.663Z,99203.58
2024-03-26T12:33:19.502Z,99194.67
2024-03-26T12:38:22.810Z,99185.03
2024-03-26T12:43:25.815Z,99173.13
2024-03-26T12:48:29.489Z,99171.92
2024-03-26T12:53:32.448Z,99176.08
2024-03-26T12:58:35.558Z,99173.23
2024-03-26T13:03:38.642Z,99167.67
2024-03-26T13:08:41.669Z,99159.02
2024-03-26T13:13:46.597Z,99152.25
2024-03-26T13:18:49.530Z,99152.77
2024-03-26T13:23:52.537Z,99145.06
2024-03-26T13:28:55.441Z,99144.96
2024-03-26T13:33:58.444Z,99141.09
2024-03-26T13:39:01.663Z,99132.52
2024-03-26T13:44:04.860Z,99128.30
2024-03-26T13:49:16.388Z,99126.40
2024-03-26T13:54:19.574Z,99118.65
2024-03-26T13:59:22.482Z,99120.33
2024-03-26T14:04:25.394Z,99116.11
2024-03-26T14:09:29.012Z,99111.16
2024-03-26T14:14:31.924Z,99102.14
2024-03-26T14:19:34.925Z,99097.67
2024-03-26T14:24:37.831Z,99101.54
2024-03-26T14:29:40.810Z,99099.64
2024-03-26T14:34:43.742Z,99098.20
2024-03-26T14:39:46.645Z,99084.02
2024-03-26T14:44:49.767Z,99074.16
2024-03-26T14:49:52.761Z,99067.31
2024-03-26T14:54:55.978Z,99060.67
2024-03-26T14:59:59.080Z,99051.77
2024-03-26T15:05:05.639Z,99046.92
2024-03-26T15:10:08.881Z,99039.61
2024-03-26T15:15:11.945Z,99029.64
2024-03-26T15:20:18.181Z,99032.73
2024-03-26T15:25:23.744Z,99020.18
2024-03-26T15:30:45.684Z,99017.70
2024-03-26T15:35:48.492Z,99017.95
2024-03-26T15:40:51.401Z,99011.54
2024-03-26T15:45:54.403Z,99010.77
2024-03-26T15:50:57.405Z,98997.05
2024-03-26T15:56:00.334Z,98988.39
2024-03-26T16:01:03.419Z,98977.52
2024-03-26T16:06:07.423Z,98967.66
2024-03-26T16:11:13.854Z,98963.67
2024-03-26T16:16:17.258Z,98963.81
2024-03-26T16:21:20.416Z,98958.55
2024-03-26T16:26:23.371Z,98948.02
2024-03-26T16:31:26.279Z,98946.14
2024-03-26T16:36:29.381Z,98934.91
2024-03-26T16:41:35.310Z,98933.15
2024-03-26T16:46:39.767Z,98927.96
2024-03-26T16:51:43.866Z,98915.73
2024-03-26T16:56:46.840Z,98908.71
2024-03-26T17:01:50.048Z,98906.46
2024-03-26T17:06:52.959Z,98905.84
2024-03-26T17:11:55.850Z,98903.73
2024-03-26T17:17:09.642Z,98897.00
2024-03-26T17:22:17.549Z,98898.11
2024-03-26T17:27:20.646Z,98894.30
2024-03-26T17:32:23.885Z,98900.65
2024-03-26T17:37:26.815Z,98898.20
2024-03-26T17:42:33.556Z,98891.87
2024-03-26T17:47:36.772Z,98892.77
2024-03-26T17:52:40.085Z,98897.68
2024-03-26T17:57:43.088Z,98889.30
2024-03-26T18:02:49.636Z,98887.04
2024-03-26T18:07:52.592Z,98881.63
2024-03-26T18:12:55.487Z,98885.13
2024-03-26T18:17:58.412Z,98884.73
2024-03-26T18:23:01.395Z,98884.90
2024-03-26T18:28:05.017Z,98887.39
2024-03-26T18:33:07.923Z,98881.23
2024-03-26T18:38:10.832Z,98881.22
2024-03-26T18:43:13.835Z,98882.27
2024-03-26T18:48:17.088Z,98880.73
2024-03-26T18:53:20.062Z,98883.89
2024-03-26T18:58:22.970Z,98885.56
2024-03-26T19:03:26.477Z,98887.62
2024-03-26T19:08:29.526Z,98891.60
2024-03-26T19:13:35.666Z,98891.76
2024-03-26T19:18:38.789Z,98891.93
2024-03-26T19:23:41.882Z,98893.95
2024-03-26T19:28:44.786Z,98893.11
2024-03-26T19:33:49.131Z,98894.47
2024-03-26T19:38:53.255Z,98893.98
2024-03-26T19:43:56.507Z,98886.43
2024-03-26T19:48:59.788Z,98893.55
2024-03-26T19:54:02.958Z,98893.45
2024-03-26T19:59:05.898Z,98894.61
2024-03-26T20:04:09.355Z,98892.37
2024-03-26T20:09:12.536Z,98889.77
2024-03-26T20:14:15.745Z,98890.55
2024-03-26T20:19:18.716Z,98888.41
2024-03-26T20:24:22.282Z,98885.20
2024-03-26T20:29:25.291Z,98887.98
2024-03-26T20:34:31.144Z,98885.27
2024-03-26T20:39:34.156Z,98877.44
2024-03-26T20:44:37.485Z,98873.14
2024-03-26T20:49:40.888Z,98868.60
2024-03-26T20:54:44.101Z,98869.40
2024-03-26T20:59:47.500Z,98863.30
2024-03-26T21:04:50.820Z,98861.45
2024-03-26T21:09:53.966Z,98854.34
2024-03-26T21:14:57.044Z,98852.08
2024-03-26T21:20:01.892Z,98843.05
2024-03-26T21:25:06.775Z,98836.39
2024-03-26T21:30:10.503Z,98835.61
2024-03-26T21:35:13.784Z,98827.58
2024-03-26T21:40:17.207Z,98823.80
2024-03-26T21:45:20.099Z,98820.91
2024-03-26T21:50:23.112Z,98814.11
2024-03-26T21:55:26.108Z,98812.31
2024-03-26T22:00:29.059Z,98807.44
2024-03-26T22:05:32.941Z,98800.09
2024-03-26T22:10:38.611Z,98795.98
2024-03-26T22:15:42.917Z,98792.67
2024-03-26T22:20:55.796Z,98789.02
2024-03-26T22:26:02.096Z,98787.39
2024-03-26T22:31:06.750Z,98779.71
2024-03-26T22:36:10.185Z,98778.20
2024-03-26T22:41:13.032Z,98767.73
2024-03-26T22:46:15.934Z,98760.91
2024-03-26T22:51:18.738Z,98760.80
2024-03-26T22:56:21.964Z,98754.27
2024-03-26T23:01:24.916Z,98746.15
2024-03-26T23:06:27.970Z,98744.95
2024-03-26T23:11:31.195Z,98740.34
2024-03-26T23:16:34.080Z,98741.89
2024-03-26T23:21:37.097Z,98736.64
2024-03-26T23:26:40.200Z,98726.89
2024-03-26T23:31:43.204Z,98721.70
2024-03-26T23:36:46.103Z,98719.14
2024-03-26T23:41:49.217Z,98713.59
2024-03-26T23:46:52.117Z,98709.23
2024-03-26T23:51:55.024Z,98700.15
2024-03-26T23:56:57.827Z,98696.08
